AirNav   Duncan Aviation - Near you to keep you flying
 
 1423 users online  

79OK Wilson Ranch Airport
Sperry, Oklahoma, USA

GOING TO SPERRY?


FAA INFORMATION EFFECTIVE 01 DECEMBER 2022

Location

FAA Identifier: 79OK
Lat/Long: 36-18-49.2300N 096-05-08.5400W
36-18.820500N 096-05.142333W
36.3136750,-96.0857056
(estimated)
Elevation: 910 ft. / 277 m (estimated)
From city: 8 miles W of SPERRY, OK
Time zone: UTC -6 (UTC -5 during Daylight Saving Time)
Zip code: 74070

Airport Operations

Airport use: Private use. Permission required prior to landing
Activation date: 04/2012
Control tower: no
ARTCC: KANSAS CITY CENTER
FSS: MC ALESTER FLIGHT SERVICE STATION
Attendance: UNATNDD
Wind indicator: yes
Segmented circle: no

Airport Communications

WX AWOS-3 at OWP (9 nm S): 118.325 (918-246-2635)
WX ASOS at TUL (12 nm SE): PHONE 918-831-6772
WX ASOS at RVS (17 nm S): 126.5 (918-299-0740)

Nearby radio navigation aids

VOR radial/distance  VOR name  Freq  Var
TULr288/16.0TULSA VORTAC114.4008E
BVOr178/31.4BARTLESVILLE VOR/DME117.9008E
OKMr336/38.7OKMULGEE VOR/DME114.9008E

Airport Services

Runway Information

Runway 18/36

Dimensions: 3000 x 50 ft. / 914 x 15 m
Surface: gravel
RUNWAY 18  RUNWAY 36
Traffic pattern: leftleft

Airport Ownership and Management from official FAA records

Ownership: Privately-owned
Owner: DAVID L. WILSON
7942 W 113 ST N.
SPERRY, OK 74073
Phone 918-288-7842
Manager: RONNY D. WILSON
10757 LAKE RD
SPERRY, OK 74073
Phone 918-288-7327
CELL: 918-857-1766

Airport Operational Statistics

Aircraft based on the field: 1
Single engine airplanes: 1
    

Additional Remarks

FOR CD CTC TULSA APCH AT 918-831-6714/6720.

Instrument Procedures

There are no published instrument procedures at 79OK.

Some nearby airports with instrument procedures:

KOWP - William R Pogue Municipal Airport (9 nm S)
KTUL - Tulsa International Airport (12 nm SE)
KRVS - Tulsa Riverside Airport (17 nm S)
KBVO - Bartlesville Municipal Airport (27 nm N)
KGCM - Claremore Regional Airport (29 nm E)
 
Loc | Ops | Rwys | IFR | FBO | Links
Com | Nav | Svcs | Stats | Notes
Aerial photo
No photo
 
Airport distance calculator
Flying to Wilson Ranch Airport? Find the distance to fly.

From to 79OK

Sunrise and sunset
Times for 02-Dec-2022
 Local
(UTC-6)
 Zulu
(UTC)
Morning civil twilight06:5112:51
Sunrise07:1913:19
Sunset17:0823:08
Evening civil twilight17:3723:37

Current date and time
Zulu (UTC)  02-Dec-2022 15:54:40
Local (UTC-6)  02-Dec-2022 09:54:40
 
METAR
KOWP 
9nm S 
021535Z AUTO 19012G19KT 10SM OVC014 11/08 A2997 RMK AO2 T01100079
KTUL 
12nm SE 
021453Z 17015G27KT 10SM OVC018 11/06 A2996 RMK AO2 PK WND 16027/1446 SLP143 T01060061 58013
KRVS 
17nm S 
021541Z 19012G22KT 10SM OVC014 11/07 A2996 RMK AO2 PK WND 20032/1523 T01060067
TAF
KTUL 
12nm SE 
021121Z 0212/0312 18015G25KT P6SM OVC025 FM021600 20023G37KT P6SM OVC015 FM022000 20022G34KT P6SM BKN040 FM030100 20010G21KT P6SM BKN250 FM030300 25014KT P6SM BKN250 FM030500 36022G32KT P6SM BKN250 FM031000 35015G23KT P6SM SCT250
KRVS 
17nm S 
021121Z 0212/0312 18013G22KT P6SM OVC025 FM021600 20020G34KT P6SM OVC015 FM022000 20019G30KT P6SM BKN040 FM030100 20010G17KT P6SM BKN250 FM030300 25011KT P6SM BKN250 FM030500 36020G30KT P6SM BKN250 FM031000 35013G21KT P6SM SCT250
NOTAMs
Click for the latest NOTAMs
NOTAMs are issued by the DoD/FAA and will open in a separate window not controlled by AirNav.

 

 
 

Would you like to see your business listed on this page?

 If your business provides an interesting product or service to pilots, flight crews, aircraft, or users of the Wilson Ranch Airport, you should consider listing it here.  To start the listing process, click on the button below
 
Add a business
 

Other Pages about Wilson Ranch Airport

Update a link
 
Copyright © AirNav, LLC. All rights reserved. Privacy Policy  Contact